createdAt,value
2019-02-17T00:00:54.474Z,79.63
2019-02-17T00:03:24.006Z,79.73
2019-02-17T00:05:53.665Z,80.23
2019-02-17T00:08:23.130Z,80.31
2019-02-17T00:10:52.764Z,80.31
2019-02-17T00:13:22.320Z,80.56
2019-02-17T00:15:51.966Z,80.90
2019-02-17T00:18:21.589Z,80.73
2019-02-17T00:20:51.423Z,80.48
2019-02-17T00:23:20.877Z,81.15
2019-02-17T00:25:50.415Z,81.54
2019-02-17T00:28:19.869Z,81.12
2019-02-17T00:30:49.414Z,81.94
2019-02-17T00:33:18.920Z,81.92
2019-02-17T00:35:48.388Z,81.66
2019-02-17T00:38:18.122Z,81.45
2019-02-17T00:40:48.019Z,82.61
2019-02-17T00:43:17.541Z,82.92
2019-02-17T00:45:47.104Z,82.34
2019-02-17T00:48:16.917Z,82.60
2019-02-17T00:50:46.838Z,82.59
2019-02-17T00:53:16.338Z,82.18
2019-02-17T00:55:46.472Z,81.65
2019-02-17T00:58:16.362Z,81.71
2019-02-17T01:00:45.994Z,81.94
2019-02-17T01:03:15.460Z,81.71
2019-02-17T01:05:45.029Z,81.95
2019-02-17T01:08:14.563Z,82.41
2019-02-17T01:10:44.497Z,82.43
2019-02-17T01:13:14.054Z,82.79
2019-02-17T01:15:43.950Z,82.58
2019-02-17T01:18:13.584Z,83.48
2019-02-17T01:20:43.570Z,82.94
2019-02-17T01:23:13.040Z,82.25
2019-02-17T01:25:42.522Z,82.72
2019-02-17T01:28:12.055Z,82.91
2019-02-17T01:30:42.258Z,82.62
2019-02-17T01:33:11.782Z,82.51
2019-02-17T01:35:41.542Z,82.12
2019-02-17T01:38:11.277Z,82.37
2019-02-17T01:40:40.918Z,82.38
2019-02-17T01:43:10.463Z,82.70
2019-02-17T01:45:40.018Z,82.81
2019-02-17T01:48:09.519Z,83.09
2019-02-17T01:50:39.000Z,82.66
2019-02-17T01:53:08.541Z,83.21
2019-02-17T01:55:38.296Z,83.70
2019-02-17T01:58:07.788Z,83.47
2019-02-17T02:00:37.839Z,83.28
2019-02-17T02:03:07.540Z,83.46
2019-02-17T02:05:38.074Z,83.47
2019-02-17T02:08:07.714Z,83.45
2019-02-17T02:10:37.265Z,83.20
2019-02-17T02:13:06.899Z,83.11
2019-02-17T02:15:36.618Z,83.07
2019-02-17T02:18:06.152Z,82.97
2019-02-17T02:20:36.220Z,83.53
2019-02-17T02:23:06.050Z,83.71
2019-02-17T02:25:36.197Z,83.82
2019-02-17T02:28:05.937Z,83.40
2019-02-17T02:30:35.479Z,83.18
2019-02-17T02:33:05.314Z,83.19
2019-02-17T02:35:36.026Z,83.39
2019-02-17T02:38:05.769Z,83.51
2019-02-17T02:40:35.820Z,83.67
2019-02-17T02:43:05.583Z,83.98
2019-02-17T02:45:35.537Z,84.40
2019-02-17T02:48:05.576Z,84.19
2019-02-17T02:50:35.217Z,84.26
2019-02-17T02:53:04.758Z,84.50
2019-02-17T02:55:34.320Z,84.60
2019-02-17T02:58:04.045Z,84.63
2019-02-17T03:00:34.273Z,84.12
2019-02-17T03:03:04.106Z,83.64
2019-02-17T03:05:34.127Z,83.57
2019-02-17T03:08:05.640Z,83.91
2019-02-17T03:10:35.315Z,84.16
2019-02-17T03:13:04.837Z,84.29
2019-02-17T03:15:34.770Z,84.01
2019-02-17T03:18:06.313Z,83.84
2019-02-17T03:20:38.231Z,84.01
2019-02-17T03:23:07.729Z,84.36
2019-02-17T03:25:37.417Z,84.67
2019-02-17T03:28:07.244Z,84.84
2019-02-17T03:30:37.153Z,84.23
2019-02-17T03:33:06.668Z,84.04
2019-02-17T03:35:37.011Z,84.40
2019-02-17T03:38:06.560Z,84.59
2019-02-17T03:40:37.725Z,84.99
2019-02-17T03:43:07.360Z,84.92
2019-02-17T03:45:37.132Z,84.80
2019-02-17T03:48:06.829Z,84.55
2019-02-17T03:50:36.312Z,84.28
2019-02-17T03:53:11.566Z,84.86
2019-02-17T03:55:41.330Z,85.49
2019-02-17T03:58:10.882Z,85.22
2019-02-17T04:00:40.449Z,84.96
2019-02-17T04:03:10.087Z,84.89
2019-02-17T04:05:39.839Z,84.80
2019-02-17T04:08:09.534Z,85.33
2019-02-17T04:10:39.013Z,85.25
2019-02-17T04:13:08.655Z,84.85
2019-02-17T04:15:38.190Z,84.71
2019-02-17T04:18:07.843Z,84.53
2019-02-17T04:20:37.375Z,84.83
2019-02-17T04:23:07.026Z,85.00
2019-02-17T04:25:36.575Z,85.03
2019-02-17T04:28:06.317Z,85.41
2019-02-17T04:30:35.805Z,85.89
2019-02-17T04:33:05.360Z,85.29
2019-02-17T04:35:34.815Z,85.19
2019-02-17T04:38:07.103Z,85.01
2019-02-17T04:40:36.564Z,84.88
2019-02-17T04:43:06.208Z,84.91
2019-02-17T04:45:35.844Z,85.22
2019-02-17T04:48:05.391Z,85.26
2019-02-17T04:50:35.132Z,85.16
2019-02-17T04:53:04.746Z,85.06
2019-02-17T04:55:34.578Z,85.26
2019-02-17T04:58:06.589Z,85.34
2019-02-17T05:00:40.158Z,85.32
2019-02-17T05:03:06.549Z,85.29
2019-02-17T05:05:36.193Z,85.30
2019-02-17T05:08:05.671Z,85.16
2019-02-17T05:10:35.453Z,85.35
2019-02-17T05:13:05.028Z,85.39
2019-02-17T05:15:34.669Z,85.47
2019-02-17T05:18:04.860Z,86.05
2019-02-17T05:20:34.515Z,86.01
2019-02-17T05:23:04.279Z,85.71
2019-02-17T05:25:33.749Z,85.68
2019-02-17T05:28:03.500Z,85.62
2019-02-17T05:30:33.607Z,85.77
2019-02-17T05:33:03.262Z,85.80
2019-02-17T05:35:32.835Z,86.16
2019-02-17T05:38:02.491Z,86.60
2019-02-17T05:40:32.181Z,86.18
2019-02-17T05:43:01.774Z,85.94
2019-02-17T05:45:31.498Z,85.81
2019-02-17T05:48:00.990Z,85.88
2019-02-17T05:50:30.626Z,86.08
2019-02-17T05:53:00.174Z,86.14
2019-02-17T05:55:30.095Z,86.12
2019-02-17T05:57:59.857Z,86.09
2019-02-17T06:00:32.037Z,86.04
2019-02-17T06:03:01.817Z,86.07
2019-02-17T06:05:31.469Z,86.18
2019-02-17T06:08:01.030Z,86.21
2019-02-17T06:10:30.702Z,86.21
2019-02-17T06:13:00.440Z,86.51
2019-02-17T06:15:30.082Z,86.43
2019-02-17T06:17:59.827Z,86.11
2019-02-17T06:20:29.572Z,85.91
2019-02-17T06:22:59.224Z,86.20
2019-02-17T06:25:28.766Z,86.65
2019-02-17T06:27:58.656Z,86.73
2019-02-17T06:30:28.150Z,86.88
2019-02-17T06:32:57.742Z,87.18
2019-02-17T06:35:27.358Z,87.43
2019-02-17T06:37:56.893Z,87.36
2019-02-17T06:40:26.626Z,87.56
2019-02-17T06:42:56.348Z,87.96
2019-02-17T06:45:25.886Z,87.38
2019-02-17T06:47:55.629Z,86.22
2019-02-17T06:50:25.094Z,84.82
2019-02-17T06:52:54.565Z,83.25
2019-02-17T06:55:31.754Z,81.03
2019-02-17T06:58:01.302Z,79.60
2019-02-17T07:00:32.565Z,77.60
2019-02-17T07:03:02.032Z,75.37
2019-02-17T07:05:39.053Z,72.75
2019-02-17T07:08:09.554Z,71.25
2019-02-17T07:10:39.089Z,69.33
2019-02-17T07:13:08.952Z,65.82
2019-02-17T07:15:38.863Z,65.86
2019-02-17T07:18:08.421Z,63.34
2019-02-17T07:20:37.952Z,63.75
2019-02-17T07:23:07.496Z,59.79
2019-02-17T07:25:37.020Z,60.23
2019-02-17T07:28:06.674Z,56.36
2019-02-17T07:30:36.518Z,55.70
2019-02-17T07:33:06.018Z,53.92
2019-02-17T07:35:35.843Z,53.45
2019-02-17T07:38:05.676Z,51.66
2019-02-17T07:40:35.207Z,50.71
2019-02-17T07:43:04.702Z,51.56
2019-02-17T07:45:34.242Z,51.50
2019-02-17T07:48:03.846Z,51.37
2019-02-17T07:50:33.514Z,52.23
2019-02-17T07:53:03.007Z,52.35
2019-02-17T07:55:32.475Z,52.62
2019-02-17T07:58:01.953Z,52.28
2019-02-17T08:00:31.421Z,51.30
2019-02-17T08:03:01.184Z,54.74
2019-02-17T08:05:30.785Z,56.67
2019-02-17T08:08:00.943Z,52.48
2019-02-17T08:10:33.502Z,52.38
2019-02-17T08:13:03.052Z,49.88
2019-02-17T08:15:32.683Z,49.45
2019-02-17T08:18:02.441Z,48.66
2019-02-17T08:20:31.889Z,50.99
2019-02-17T08:23:01.433Z,51.87
2019-02-17T08:25:30.979Z,52.80
2019-02-17T08:28:00.518Z,52.24
2019-02-17T08:30:30.607Z,51.45
2019-02-17T08:33:00.721Z,51.80
2019-02-17T08:35:30.358Z,51.72
2019-02-17T08:37:59.860Z,49.92
2019-02-17T08:40:29.328Z,48.58
2019-02-17T08:42:58.811Z,48.20
2019-02-17T08:45:28.525Z,44.71
2019-02-17T08:47:58.262Z,46.15
2019-02-17T08:50:27.740Z,43.01
2019-02-17T08:52:57.306Z,43.05
2019-02-17T08:55:27.826Z,43.33
2019-02-17T08:57:58.028Z,40.97
2019-02-17T09:00:27.952Z,40.97
2019-02-17T09:02:57.527Z,39.75
2019-02-17T09:05:27.064Z,39.48
2019-02-17T09:07:56.709Z,39.58
2019-02-17T09:10:26.257Z,39.20
2019-02-17T09:12:56.235Z,39.87
2019-02-17T09:15:25.893Z,39.87
2019-02-17T09:17:55.526Z,38.36
2019-02-17T09:20:25.451Z,36.64
2019-02-17T09:22:55.025Z,38.69
2019-02-17T09:25:24.951Z,37.49
2019-02-17T09:27:54.583Z,39.62
2019-02-17T09:30:24.228Z,42.82
2019-02-17T09:32:53.794Z,37.34
2019-02-17T09:35:23.350Z,38.82
2019-02-17T09:37:52.897Z,39.46
2019-02-17T09:40:22.444Z,39.71
2019-02-17T09:42:52.113Z,40.34
2019-02-17T09:45:21.797Z,35.44
2019-02-17T09:47:51.474Z,38.39
2019-02-17T09:50:21.038Z,35.66
2019-02-17T09:52:50.876Z,32.71
2019-02-17T09:55:20.738Z,33.40
2019-02-17T09:57:50.296Z,36.99
2019-02-17T10:00:19.790Z,36.52
2019-02-17T10:02:49.332Z,32.60
2019-02-17T10:05:18.994Z,31.71
2019-02-17T10:07:48.633Z,33.26
2019-02-17T10:10:19.233Z,37.49
2019-02-17T10:12:48.693Z,36.02
2019-02-17T10:15:19.406Z,33.24
2019-02-17T10:17:49.385Z,30.53
2019-02-17T10:20:18.943Z,32.98
2019-02-17T10:22:48.448Z,36.76
2019-02-17T10:25:17.998Z,37.20
2019-02-17T10:27:48.052Z,34.90
2019-02-17T10:30:18.766Z,34.22
2019-02-17T10:32:48.373Z,31.35
2019-02-17T10:35:18.625Z,29.63
2019-02-17T10:37:48.241Z,29.16
2019-02-17T10:40:20.454Z,30.95
2019-02-17T10:42:50.325Z,30.23
2019-02-17T10:45:19.872Z,28.75
2019-02-17T10:47:49.562Z,27.67
2019-02-17T10:50:19.431Z,29.98
2019-02-17T10:52:49.097Z,28.31
2019-02-17T10:55:18.592Z,28.19
2019-02-17T10:57:48.075Z,29.83
2019-02-17T11:00:22.391Z,28.83
2019-02-17T11:02:51.952Z,27.63
2019-02-17T11:05:21.794Z,27.06
2019-02-17T11:07:51.743Z,30.04
2019-02-17T11:10:21.236Z,28.53
2019-02-17T11:12:50.968Z,26.54
2019-02-17T11:15:21.475Z,26.92
2019-02-17T11:17:51.290Z,27.91
2019-02-17T11:20:20.791Z,27.32
2019-02-17T11:22:50.431Z,28.51
2019-02-17T11:25:19.980Z,28.61
2019-02-17T11:27:49.742Z,29.46
2019-02-17T11:30:22.581Z,27.88
2019-02-17T11:32:57.978Z,28.77
2019-02-17T11:35:23.338Z,30.62
2019-02-17T11:37:52.825Z,31.23
2019-02-17T11:40:22.360Z,30.02
2019-02-17T11:42:51.974Z,28.37
2019-02-17T11:45:21.663Z,27.67
2019-02-17T11:47:51.495Z,28.38
2019-02-17T11:50:21.057Z,28.45
2019-02-17T11:52:50.959Z,27.21
2019-02-17T11:55:22.782Z,25.64
2019-02-17T11:57:51.754Z,27.10
2019-02-17T12:00:22.566Z,27.77
2019-02-17T12:02:52.455Z,29.39
2019-02-17T12:05:22.301Z,29.46
2019-02-17T12:07:51.776Z,29.28
2019-02-17T12:10:21.339Z,28.41
2019-02-17T12:12:51.070Z,29.54
2019-02-17T12:15:20.730Z,28.23
2019-02-17T12:17:50.539Z,27.08
2019-02-17T12:20:31.571Z,27.36
2019-02-17T12:23:10.383Z,27.53
2019-02-17T12:25:42.039Z,25.94
2019-02-17T12:28:19.119Z,27.41
2019-02-17T12:30:50.478Z,27.12
2019-02-17T12:33:21.810Z,26.38
2019-02-17T12:35:51.624Z,26.62
2019-02-17T12:38:21.092Z,26.73
2019-02-17T12:40:50.580Z,26.06
2019-02-17T12:43:20.061Z,26.67
2019-02-17T12:45:49.719Z,25.85
2019-02-17T12:48:19.373Z,26.51
2019-02-17T12:50:48.851Z,28.02
2019-02-17T12:53:18.421Z,27.39
2019-02-17T12:55:47.900Z,27.87
2019-02-17T12:58:17.635Z,27.95
2019-02-17T13:00:47.398Z,27.96
2019-02-17T13:03:17.114Z,29.19
2019-02-17T13:05:47.028Z,28.75
2019-02-17T13:08:16.767Z,27.92
2019-02-17T13:10:46.585Z,27.34
2019-02-17T13:13:16.084Z,27.54
2019-02-17T13:15:46.022Z,28.00
2019-02-17T13:18:15.813Z,26.92
2019-02-17T13:20:45.915Z,27.23
2019-02-17T13:23:15.620Z,27.77
2019-02-17T13:25:45.736Z,27.99
2019-02-17T13:28:15.280Z,27.30
2019-02-17T13:30:45.159Z,27.11
2019-02-17T13:33:14.623Z,27.96
2019-02-17T13:35:44.282Z,27.44
2019-02-17T13:38:14.708Z,27.30
2019-02-17T13:40:44.201Z,27.83
2019-02-17T13:43:13.947Z,28.43
2019-02-17T13:45:44.909Z,27.93
2019-02-17T13:48:14.486Z,28.11
2019-02-17T13:50:44.485Z,28.03
2019-02-17T13:53:13.957Z,28.21
2019-02-17T13:55:43.774Z,28.65
2019-02-17T13:58:13.497Z,28.55
2019-02-17T14:00:43.304Z,28.57
2019-02-17T14:03:13.207Z,28.66
2019-02-17T14:05:42.885Z,29.69
2019-02-17T14:08:12.372Z,29.42
2019-02-17T14:10:42.017Z,30.54
2019-02-17T14:13:11.778Z,30.09
2019-02-17T14:15:41.267Z,30.85
2019-02-17T14:18:11.049Z,30.70
2019-02-17T14:20:40.914Z,30.66
2019-02-17T14:23:10.566Z,30.71
2019-02-17T14:25:40.130Z,31.01
2019-02-17T14:28:09.945Z,31.67
2019-02-17T14:30:39.896Z,31.26
2019-02-17T14:33:09.512Z,32.11
2019-02-17T14:35:39.074Z,31.86
2019-02-17T14:38:08.812Z,31.47
2019-02-17T14:40:38.420Z,30.76
2019-02-17T14:43:08.347Z,30.98
2019-02-17T14:45:38.103Z,31.09
2019-02-17T14:48:07.831Z,31.67
2019-02-17T14:50:37.583Z,31.91
2019-02-17T14:53:07.048Z,32.64
2019-02-17T14:55:36.525Z,33.04
2019-02-17T14:58:06.092Z,33.25
2019-02-17T15:00:35.832Z,33.26
2019-02-17T15:03:05.310Z,33.13
2019-02-17T15:05:35.293Z,33.79
2019-02-17T15:08:05.960Z,34.64
2019-02-17T15:10:36.481Z,35.22
2019-02-17T15:13:05.967Z,35.57
2019-02-17T15:15:35.441Z,36.06
2019-02-17T15:18:04.992Z,36.75
2019-02-17T15:20:34.732Z,37.56
2019-02-17T15:23:04.287Z,37.33
2019-02-17T15:25:34.115Z,37.44
2019-02-17T15:28:03.584Z,37.76
2019-02-17T15:30:35.914Z,38.28
2019-02-17T15:33:05.721Z,38.42
2019-02-17T15:35:35.221Z,38.78
2019-02-17T15:38:04.776Z,39.28
2019-02-17T15:40:34.514Z,39.88
2019-02-17T15:43:04.292Z,40.14
2019-02-17T15:45:33.845Z,40.28
2019-02-17T15:48:03.389Z,40.78
2019-02-17T15:50:33.117Z,41.21
2019-02-17T15:53:02.641Z,41.28
2019-02-17T15:55:32.113Z,41.63
2019-02-17T15:58:01.757Z,42.10
2019-02-17T16:00:31.219Z,42.37
2019-02-17T16:03:00.704Z,42.88
2019-02-17T16:05:30.448Z,44.14
2019-02-17T16:08:00.057Z,44.39
2019-02-17T16:10:29.651Z,44.97
2019-02-17T16:12:59.223Z,44.78
2019-02-17T16:15:28.690Z,44.84
2019-02-17T16:17:58.206Z,44.84
2019-02-17T16:20:27.673Z,45.03
2019-02-17T16:22:57.663Z,45.91
2019-02-17T16:25:27.579Z,46.75
2019-02-17T16:27:58.217Z,47.72
2019-02-17T16:30:28.045Z,47.71
2019-02-17T16:32:57.527Z,48.76
2019-02-17T16:35:26.991Z,48.53
2019-02-17T16:37:56.474Z,48.03
2019-02-17T16:40:25.950Z,47.65
2019-02-17T16:42:55.790Z,48.23
2019-02-17T16:45:25.288Z,48.20
2019-02-17T16:47:54.855Z,48.40
2019-02-17T16:50:26.616Z,48.90
2019-02-17T16:52:56.118Z,48.47
2019-02-17T16:55:25.588Z,48.76
2019-02-17T16:57:55.061Z,48.46
2019-02-17T17:00:28.467Z,48.49
2019-02-17T17:02:57.967Z,48.61
2019-02-17T17:05:27.433Z,48.67
2019-02-17T17:07:56.914Z,48.81
2019-02-17T17:10:26.396Z,49.56
2019-02-17T17:12:55.860Z,49.49
2019-02-17T17:15:25.812Z,49.55
2019-02-17T17:17:55.544Z,49.90
2019-02-17T17:20:25.027Z,50.16
2019-02-17T17:22:54.522Z,50.31
2019-02-17T17:25:23.996Z,50.71
2019-02-17T17:27:53.476Z,50.58
2019-02-17T17:30:23.031Z,50.92
2019-02-17T17:32:52.567Z,51.15
2019-02-17T17:35:22.368Z,51.44
2019-02-17T17:37:51.843Z,51.54
2019-02-17T17:40:21.588Z,52.06
2019-02-17T17:42:51.076Z,52.61
2019-02-17T17:45:21.889Z,53.33
2019-02-17T17:47:52.581Z,53.75
2019-02-17T17:50:22.045Z,54.24
2019-02-17T17:52:52.171Z,54.61
2019-02-17T17:55:28.679Z,55.09
2019-02-17T17:57:58.711Z,55.16
2019-02-17T18:00:30.120Z,55.55
2019-02-17T18:02:59.936Z,56.00
2019-02-17T18:05:29.429Z,56.47
2019-02-17T18:07:59.010Z,57.02
2019-02-17T18:10:28.474Z,57.09
2019-02-17T18:12:57.945Z,57.35
2019-02-17T18:15:27.435Z,57.32
2019-02-17T18:17:56.942Z,57.72
2019-02-17T18:20:26.406Z,58.19
2019-02-17T18:22:55.945Z,58.25
2019-02-17T18:25:25.423Z,58.57
2019-02-17T18:27:54.912Z,59.19
2019-02-17T18:30:24.394Z,59.75
2019-02-17T18:32:53.874Z,60.62
2019-02-17T18:35:23.342Z,60.91
2019-02-17T18:37:52.820Z,61.32
2019-02-17T18:40:22.316Z,61.92
2019-02-17T18:42:51.781Z,62.71
2019-02-17T18:45:21.251Z,62.74
2019-02-17T18:47:51.253Z,63.16
2019-02-17T18:50:20.732Z,63.51
2019-02-17T18:52:50.485Z,63.68
2019-02-17T18:55:20.287Z,63.26
2019-02-17T18:57:51.126Z,62.58
2019-02-17T19:00:27.259Z,62.33
2019-02-17T19:02:56.740Z,62.97
2019-02-17T19:05:31.899Z,62.73
2019-02-17T19:07:57.692Z,62.96
2019-02-17T19:10:27.168Z,63.10
2019-02-17T19:12:56.647Z,62.88
2019-02-17T19:15:26.120Z,63.60
2019-02-17T19:17:55.585Z,62.50
2019-02-17T19:20:31.006Z,62.33
2019-02-17T19:23:00.524Z,62.53
2019-02-17T19:25:30.016Z,62.47
2019-02-17T19:27:59.475Z,62.85
2019-02-17T19:30:28.955Z,62.82
2019-02-17T19:32:58.433Z,63.17
2019-02-17T19:35:27.958Z,63.58
2019-02-17T19:37:57.791Z,63.65
2019-02-17T19:40:27.284Z,64.32
2019-02-17T19:42:56.732Z,64.72
2019-02-17T19:45:26.220Z,64.68
2019-02-17T19:47:55.804Z,65.67
2019-02-17T19:50:34.197Z,65.83
2019-02-17T19:55:40.503Z,65.51
2019-02-17T19:58:09.957Z,65.44
2019-02-17T20:00:39.421Z,65.37
2019-02-17T20:03:26.737Z,65.67
2019-02-17T20:06:00.602Z,65.86
2019-02-17T20:08:30.073Z,66.23
2019-02-17T20:11:02.786Z,66.47
2019-02-17T20:13:44.646Z,66.73
2019-02-17T20:16:21.903Z,67.53
2019-02-17T20:19:00.298Z,67.83
2019-02-17T20:21:37.318Z,67.58
2019-02-17T20:24:15.105Z,67.51
2019-02-17T20:26:42.449Z,67.44
2019-02-17T20:29:15.308Z,66.93
2019-02-17T20:31:57.156Z,66.36
2019-02-17T20:34:34.608Z,66.13
2019-02-17T20:37:06.996Z,66.12
2019-02-17T20:39:37.410Z,66.00
2019-02-17T20:42:08.876Z,66.47
2019-02-17T20:44:41.815Z,66.63
2019-02-17T20:47:16.424Z,66.92
2019-02-17T20:49:50.776Z,67.00
2019-02-17T20:52:25.143Z,67.33
2019-02-17T20:55:02.738Z,67.95
2019-02-17T20:57:32.932Z,68.66
2019-02-17T21:00:05.787Z,68.98
2019-02-17T21:02:40.196Z,69.77
2019-02-17T21:05:14.419Z,70.24
2019-02-17T21:07:48.196Z,71.01
2019-02-17T21:10:24.425Z,71.02
2019-02-17T21:13:01.406Z,70.82
2019-02-17T21:15:30.110Z,71.43
2019-02-17T21:18:03.089Z,71.41
2019-02-17T21:20:41.909Z,71.55
2019-02-17T21:23:13.728Z,71.83
2019-02-17T21:25:46.363Z,72.24
2019-02-17T21:28:19.454Z,72.58
2019-02-17T21:30:51.861Z,72.91
2019-02-17T21:33:27.009Z,73.03
2019-02-17T21:36:01.177Z,73.26
2019-02-17T21:38:34.107Z,72.90
2019-02-17T21:41:09.357Z,73.13
2019-02-17T21:43:39.625Z,73.27
2019-02-17T21:46:12.198Z,72.64
2019-02-17T21:48:47.487Z,72.58
2019-02-17T21:51:15.463Z,72.68
2019-02-17T21:53:45.370Z,73.36
2019-02-17T21:56:16.831Z,73.62
2019-02-17T21:58:53.400Z,73.86
2019-02-17T22:01:24.924Z,73.10
2019-02-17T22:04:03.676Z,72.84
2019-02-17T22:06:34.053Z,73.16
2019-02-17T22:09:07.039Z,72.73
2019-02-17T22:11:41.374Z,73.39
2019-02-17T22:14:11.177Z,73.54
2019-02-17T22:16:42.771Z,73.81
2019-02-17T22:19:12.948Z,74.13
2019-02-17T22:21:45.407Z,74.38
2019-02-17T22:24:18.253Z,74.61
2019-02-17T22:26:48.217Z,74.21
2019-02-17T22:29:20.880Z,74.39
2019-02-17T22:31:49.991Z,74.46
2019-02-17T22:34:20.982Z,74.92
2019-02-17T22:36:54.645Z,75.20
2019-02-17T22:39:27.467Z,75.23
2019-02-17T22:42:03.330Z,75.91
2019-02-17T22:44:34.824Z,76.05
2019-02-17T22:47:06.257Z,75.36
2019-02-17T22:49:42.962Z,75.55
2019-02-17T22:52:12.017Z,75.72
2019-02-17T22:54:44.867Z,75.38
2019-02-17T22:57:18.607Z,75.71
2019-02-17T22:59:54.399Z,76.12
2019-02-17T23:02:24.991Z,76.52
2019-02-17T23:04:56.841Z,76.63
2019-02-17T23:07:26.894Z,76.64
2019-02-17T23:10:02.678Z,76.92
2019-02-17T23:12:33.653Z,77.34
2019-02-17T23:15:07.972Z,77.32
2019-02-17T23:17:37.856Z,77.41
2019-02-17T23:20:13.450Z,78.14
2019-02-17T23:22:43.412Z,79.08
2019-02-17T23:25:13.255Z,78.55
2019-02-17T23:27:44.762Z,78.29
2019-02-17T23:30:17.528Z,77.96
2019-02-17T23:32:49.080Z,78.33
2019-02-17T23:35:20.891Z,78.14
2019-02-17T23:37:55.590Z,78.07
2019-02-17T23:40:27.159Z,78.44
2019-02-17T23:42:57.066Z,79.07
2019-02-17T23:45:29.520Z,78.75
2019-02-17T23:48:02.496Z,78.24
2019-02-17T23:50:36.005Z,78.39
2019-02-17T23:53:06.048Z,77.99
2019-02-17T23:55:35.998Z,78.56
2019-02-17T23:58:07.384Z,77.87
